Time;durP1;ratioP1;P1;durP2;ratioP2;P2;SDS_P1;SDS_P2;PMS_P1;PMS_P2;Temp;Humidity;BMP_temperature;BMP_pressure;BME280_temperature;BME280_humidity;BME280_pressure;Samples;Min_cycle;Max_cycle;Signal;HPM_P1;HPM_P2
2023/08/13 00:03:48;;;;;;;;;;;;;;;22.98;54.42;96053.25;10448432;28;1761;-72
2023/08/13 00:08:49;;;;;;;;;;;;;;;22.98;54.15;96053.25;10477753;28;2332;-72
2023/08/13 00:13:50;;;;;;;;;;;;;;;22.98;54.43;96055.13;10463247;28;1918;-72
2023/08/13 00:18:50;;;;;;;;;;;;;;;22.97;54.37;96051.69;10456845;28;1969;-71
2023/08/13 00:23:51;;;;;;;;;;;;;;;22.99;54.40;96048.75;10462797;28;1975;-73
2023/08/13 00:28:51;;;;;;;;;;;;;;;22.98;54.49;96053.25;10453888;28;1966;-73
2023/08/13 00:33:52;;;;;;;;;;;;;;;22.99;54.40;96052.19;10456312;28;1954;-72
2023/08/13 00:38:52;;;;;;;;;;;;;;;22.99;54.56;96054.84;10453779;28;1967;-72
2023/08/13 00:43:53;;;;;;;;;;;;;;;23.00;54.34;96053.75;10448583;28;5018;-72
2023/08/13 00:48:54;;;;;;;;;;;;;;;23.00;54.38;96040.53;10448229;28;1942;-72
2023/08/13 00:53:55;;;;;;;;;;;;;;;23.00;54.40;96045.84;10450737;28;2001;-72
2023/08/13 00:58:55;;;;;;;;;;;;;;;22.99;54.00;96046.91;10444835;28;1986;-72
2023/08/13 01:03:56;;;;;;;;;;;;;;;23.00;54.50;96042.41;10454751;28;2102;-72
2023/08/13 01:09:01;;;;;;;;;;;;;;;23.01;54.41;96046.63;10461596;28;2200;-72
2023/08/13 01:14:08;;;;;;;;;;;;;;;23.01;54.13;96051.91;10470090;28;1945;-72
2023/08/13 01:19:12;;;;;;;;;;;;;;;23.01;54.40;96051.91;10455699;28;2373;-74
2023/08/13 01:24:13;;;;;;;;;;;;;;;23.02;54.09;96058.78;10445067;28;1960;-72
2023/08/13 01:29:18;;;;;;;;;;;;;;;23.02;54.30;96061.44;10421702;28;2089;-72
2023/08/13 01:34:19;;;;;;;;;;;;;;;23.02;54.32;96067.50;10428519;28;1939;-72
2023/08/13 01:39:19;;;;;;;;;;;;;;;23.03;54.41;96058.50;10429721;28;1916;-73
2023/08/13 01:44:21;;;;;;;;;;;;;;;23.02;54.12;96059.56;10462313;28;4514;-72
2023/08/13 01:49:22;;;;;;;;;;;;;;;23.03;54.21;96044.50;10435694;28;1995;-72
2023/08/13 01:54:26;;;;;;;;;;;;;;;23.02;54.30;96038.41;10457595;28;1970;-72
2023/08/13 01:59:27;;;;;;;;;;;;;;;23.03;54.30;96042.63;10447310;28;1946;-71
2023/08/13 02:04:28;;;;;;;;;;;;;;;23.04;54.31;96035.50;10453097;28;2389;-72
2023/08/13 02:09:31;;;;;;;;;;;;;;;23.03;54.13;96033.91;10446840;28;2037;-72
2023/08/13 02:14:31;;;;;;;;;;;;;;;23.03;54.19;96040.00;10456869;28;2375;-71
2023/08/13 02:19:32;;;;;;;;;;;;;;;23.03;54.22;96045.28;10454358;28;2044;-71
2023/08/13 02:24:32;;;;;;;;;;;;;;;23.05;54.27;96039.69;10453093;28;1997;-72
2023/08/13 02:29:33;;;;;;;;;;;;;;;23.04;54.15;96038.16;10472813;28;2003;-72
2023/08/13 02:34:35;;;;;;;;;;;;;;;23.04;54.24;96036.25;10459485;28;2313;-72
2023/08/13 02:39:35;;;;;;;;;;;;;;;23.05;54.10;96042.34;10480186;28;1924;-72
2023/08/13 02:44:36;;;;;;;;;;;;;;;23.05;54.20;96045.78;10463199;28;4497;-72
2023/08/13 02:49:36;;;;;;;;;;;;;;;23.05;54.22;96045.78;10456220;28;1971;-72
2023/08/13 02:54:37;;;;;;;;;;;;;;;23.04;54.02;96036.25;10466872;28;1971;-72
2023/08/13 02:59:37;;;;;;;;;;;;;;;23.05;53.92;96043.13;10467940;28;1921;-72
2023/08/13 03:04:37;;;;;;;;;;;;;;;23.06;53.85;96039.41;10487535;28;1892;-72
2023/08/13 03:09:38;;;;;;;;;;;;;;;23.05;54.17;96026.47;10487515;28;1967;-73
2023/08/13 03:14:38;;;;;;;;;;;;;;;23.06;54.00;96018.25;10463390;28;2274;-72
2023/08/13 03:19:38;;;;;;;;;;;;;;;23.05;54.07;96014.06;10461564;28;1876;-72
2023/08/13 03:24:39;;;;;;;;;;;;;;;23.06;54.08;96012.22;10478598;28;1972;-72
2023/08/13 03:29:40;;;;;;;;;;;;;;;23.07;53.95;96019.06;10457167;28;1963;-72
2023/08/13 03:34:40;;;;;;;;;;;;;;;23.06;54.07;96018.25;10487600;28;1902;-73
2023/08/13 03:39:41;;;;;;;;;;;;;;;23.07;53.88;96024.34;10438232;28;2050;-73
2023/08/13 03:44:41;;;;;;;;;;;;;;;23.07;54.05;96024.34;10452600;28;4537;-73
2023/08/13 03:49:42;;;;;;;;;;;;;;;23.06;54.02;96028.84;10457863;28;2026;-72
2023/08/13 03:54:42;;;;;;;;;;;;;;;23.07;54.22;96022.50;10461445;28;1963;-72
2023/08/13 03:59:43;;;;;;;;;;;;;;;23.08;53.88;96020.66;10465740;28;2088;-72
2023/08/13 04:04:43;;;;;;;;;;;;;;;23.08;54.11;96012.72;10452846;28;1967;-72
2023/08/13 04:09:43;;;;;;;;;;;;;;;23.08;53.85;96015.34;10445076;28;2360;-72
2023/08/13 04:14:44;;;;;;;;;;;;;;;23.08;54.03;96021.41;10488385;28;2013;-72
2023/08/13 04:19:44;;;;;;;;;;;;;;;23.08;53.80;96020.66;10472646;28;1917;-72
2023/08/13 04:24:51;;;;;;;;;;;;;;;23.08;54.00;96015.34;10453669;28;2015;-72
2023/08/13 04:29:51;;;;;;;;;;;;;;;23.08;53.91;96018.00;10454065;28;1896;-73
2023/08/13 04:34:52;;;;;;;;;;;;;;;23.08;54.00;96025.94;10438293;28;1964;-73
2023/08/13 04:39:52;;;;;;;;;;;;;;;23.08;54.04;96023.28;10451176;28;1900;-73
2023/08/13 04:44:52;;;;;;;;;;;;;;;23.08;54.20;96021.41;10458115;28;4532;-73
2023/08/13 04:49:53;;;;;;;;;;;;;;;23.09;54.22;96011.63;10455200;28;1968;-73
2023/08/13 04:54:53;;;;;;;;;;;;;;;23.09;54.06;96012.41;10456085;28;1948;-73
2023/08/13 04:59:53;;;;;;;;;;;;;;;23.10;53.91;96023.78;10458199;28;1923;-73
2023/08/13 05:04:54;;;;;;;;;;;;;;;23.10;54.07;96010.56;10449170;28;1989;-73
2023/08/13 05:09:54;;;;;;;;;;;;;;;23.10;53.96;96013.22;10443105;28;1904;-74
2023/08/13 05:14:54;;;;;;;;;;;;;;;23.10;53.77;96002.63;10464552;28;1920;-72
2023/08/13 05:19:55;;;;;;;;;;;;;;;23.10;53.82;96005.28;10448665;28;2010;-73
2023/08/13 05:24:55;;;;;;;;;;;;;;;23.10;53.71;96008.69;10441328;28;2044;-73
2023/08/13 05:29:55;;;;;;;;;;;;;;;23.11;53.85;96004.19;10464957;28;1940;-73
2023/08/13 05:34:56;;;;;;;;;;;;;;;23.11;53.82;96001.56;10452789;28;1977;-73
2023/08/13 05:39:56;;;;;;;;;;;;;;;23.12;53.76;96001.25;10452864;28;2018;-73
2023/08/13 05:44:56;;;;;;;;;;;;;;;23.09;53.86;96012.41;10450557;28;4498;-73
2023/08/13 05:49:56;;;;;;;;;;;;;;;23.11;53.66;96010.28;10445049;28;1970;-74
2023/08/13 05:54:57;;;;;;;;;;;;;;;23.12;53.70;96013.72;10490930;28;1961;-72
2023/08/13 05:59:58;;;;;;;;;;;;;;;23.12;53.69;96001.25;10462088;28;1998;-74
2023/08/13 06:04:58;;;;;;;;;;;;;;;23.13;53.79;96002.06;10461864;28;1975;-73
2023/08/13 06:09:58;;;;;;;;;;;;;;;23.13;53.79;95994.91;10459316;28;1959;-72
2023/08/13 06:14:59;;;;;;;;;;;;;;;23.13;53.67;95994.13;10486609;28;1974;-74
2023/08/13 06:20:00;;;;;;;;;;;;;;;23.14;53.58;95998.34;10461465;28;1898;-73
2023/08/13 06:25:00;;;;;;;;;;;;;;;23.15;53.66;95994.63;10464661;28;1834;-72
2023/08/13 06:30:00;;;;;;;;;;;;;;;23.15;53.68;95984.06;10452987;28;2013;-72
2023/08/13 06:35:01;;;;;;;;;;;;;;;23.15;53.75;95973.47;10453681;28;1975;-72
2023/08/13 06:40:02;;;;;;;;;;;;;;;23.15;53.80;95984.84;10455859;28;1965;-73
2023/08/13 06:45:02;;;;;;;;;;;;;;;23.16;53.74;95980.34;10484765;28;1826;-72
2023/08/13 06:50:03;;;;;;;;;;;;;;;23.15;53.66;95971.63;10456394;28;1893;-72
2023/08/13 06:55:04;;;;;;;;;;;;;;;23.17;53.78;95976.63;10447643;28;1967;-73
2023/08/13 07:00:05;;;;;;;;;;;;;;;23.16;53.80;95977.69;10458187;28;2296;-72
2023/08/13 07:05:06;;;;;;;;;;;;;;;23.17;53.48;95987.19;10450786;28;2035;-73
2023/08/13 07:10:06;;;;;;;;;;;;;;;23.17;53.63;95971.31;10451718;28;1990;-73
2023/08/13 07:15:07;;;;;;;;;;;;;;;23.16;53.67;95973.19;10453660;28;1910;-72
2023/08/13 07:20:09;;;;;;;;;;;;;;;23.17;53.63;95982.69;10485899;28;2230;-72
2023/08/13 07:25:11;;;;;;;;;;;;;;;23.18;53.63;95983.50;10459662;28;1865;-72
2023/08/13 07:30:11;;;;;;;;;;;;;;;23.18;53.52;95975.56;10454395;28;1893;-72
2023/08/13 07:35:12;;;;;;;;;;;;;;;23.18;53.42;95978.22;10434433;28;2147;-73
2023/08/13 07:40:12;;;;;;;;;;;;;;;23.19;53.60;95974.47;10449827;28;1907;-70
2023/08/13 07:45:13;;;;;;;;;;;;;;;23.19;53.70;95980.56;10455664;28;4451;-72
2023/08/13 07:50:13;;;;;;;;;;;;;;;23.20;53.60;95978.72;10447163;28;2077;-74
2023/08/13 07:55:13;;;;;;;;;;;;;;;23.20;53.42;95978.72;10453042;28;2251;-70
2023/08/13 08:00:16;;;;;;;;;;;;;;;23.19;53.43;95967.34;10466302;28;2105;-71
2023/08/13 08:05:17;;;;;;;;;;;;;;;23.21;53.58;95967.03;10454454;28;1885;-70
2023/08/13 08:10:17;;;;;;;;;;;;;;;23.20;53.42;95966.28;10456076;28;1999;-72
2023/08/13 08:15:17;;;;;;;;;;;;;;;23.21;53.52;95973.13;10451236;28;1945;-72
2023/08/13 08:20:18;;;;;;;;;;;;;;;23.22;53.49;95973.91;10451379;28;1973;-71
2023/08/13 08:25:19;;;;;;;;;;;;;;;23.23;53.50;95970.19;10464287;28;2061;-72
2023/08/13 08:30:19;;;;;;;;;;;;;;;23.22;53.46;95968.63;10451231;28;2209;-72
2023/08/13 08:35:19;;;;;;;;;;;;;;;23.23;53.47;95970.19;10456820;28;1973;-72
2023/08/13 08:40:20;;;;;;;;;;;;;;;23.23;53.46;95963.03;10482186;28;2083;-71
2023/08/13 08:45:20;;;;;;;;;;;;;;;23.23;53.39;95960.41;10454755;28;4909;-72
2023/08/13 08:50:21;;;;;;;;;;;;;;;23.25;53.47;95957.47;10448564;28;2417;-72
2023/08/13 08:55:21;;;;;;;;;;;;;;;23.25;53.24;95962.75;10447736;28;1977;-70
2023/08/13 09:00:21;;;;;;;;;;;;;;;23.25;53.42;95952.97;10488128;28;1898;-71
2023/08/13 09:05:22;;;;;;;;;;;;;;;23.26;53.54;95959.84;10447460;28;1893;-71
2023/08/13 09:10:22;;;;;;;;;;;;;;;23.26;53.66;95957.19;10440847;28;1890;-70
2023/08/13 09:15:23;;;;;;;;;;;;;;;23.28;53.69;95956.91;10448778;28;2093;-71
2023/08/13 09:20:23;;;;;;;;;;;;;;;23.27;53.43;95947.38;10452271;28;1895;-71
2023/08/13 09:25:23;;;;;;;;;;;;;;;23.29;53.76;95937.31;10446756;28;1999;-73
2023/08/13 09:30:31;;;;;;;;;;;;;;;23.29;53.77;95939.94;10479686;28;1882;-70
2023/08/13 09:35:31;;;;;;;;;;;;;;;23.30;53.58;95933.59;10470098;28;1977;-70
2023/08/13 09:40:31;;;;;;;;;;;;;;;23.30;53.74;95925.66;10442377;28;1878;-70
2023/08/13 09:45:32;;;;;;;;;;;;;;;23.31;53.67;95924.59;10456427;28;5028;-70
2023/08/13 09:50:34;;;;;;;;;;;;;;;23.30;53.41;95915.88;10445455;28;2055;-70
2023/08/13 09:55:36;;;;;;;;;;;;;;;23.31;53.77;95914.78;10438002;28;1919;-70
2023/08/13 10:00:36;;;;;;;;;;;;;;;23.32;53.81;95907.69;10472164;28;1926;-70
2023/08/13 10:05:38;;;;;;;;;;;;;;;23.34;53.76;95908.19;10474724;28;1867;-70
2023/08/13 10:10:38;;;;;;;;;;;;;;;23.33;53.82;95903.94;10477513;28;1861;-70
2023/08/13 10:15:39;;;;;;;;;;;;;;;23.35;53.89;95905.25;10471679;28;2127;-71
2023/08/13 10:20:45;;;;;;;;;;;;;;;23.36;53.86;95917.41;10478542;28;1790;-70
2023/08/13 10:25:45;;;;;;;;;;;;;;;23.37;53.70;95915.53;10486745;28;1845;-71
2023/08/13 10:30:46;;;;;;;;;;;;;;;23.37;53.73;95907.59;10446065;28;1893;-70
2023/08/13 10:35:47;;;;;;;;;;;;;;;23.39;53.89;95910.75;10443015;28;1995;-71
2023/08/13 10:40:59;;;;;;;;;;;;;;;23.39;53.64;95902.81;10456773;28;4640;-71
2023/08/13 10:46:03;;;;;;;;;;;;;;;23.40;53.77;95905.19;10458118;28;1893;-71
2023/08/13 10:51:03;;;;;;;;;;;;;;;23.40;53.81;95896.44;10446896;28;2097;-70
2023/08/13 10:56:03;;;;;;;;;;;;;;;23.42;53.69;95896.94;10449349;28;1933;-69
2023/08/13 11:01:13;;;;;;;;;;;;;;;23.42;53.67;95889.00;10450180;28;2025;-70
2023/08/13 11:06:14;;;;;;;;;;;;;;;23.43;53.64;95893.25;10483125;28;2191;-71
2023/08/13 11:11:17;;;;;;;;;;;;;;;23.44;53.83;95894.81;10463207;28;2014;-70
2023/08/13 11:16:17;;;;;;;;;;;;;;;23.45;54.03;95891.09;10461671;28;2008;-71
2023/08/13 11:21:18;;;;;;;;;;;;;;;23.45;53.91;95885.81;10452538;28;1873;-70
2023/08/13 11:26:18;;;;;;;;;;;;;;;23.46;53.78;95882.06;10448147;28;1958;-72
2023/08/13 11:31:18;;;;;;;;;;;;;;;23.47;54.18;95885.50;10447960;28;1954;-71
2023/08/13 11:36:18;;;;;;;;;;;;;;;23.49;54.12;95873.56;10454809;28;1973;-70
2023/08/13 11:41:20;;;;;;;;;;;;;;;23.49;53.77;95873.56;10454095;28;4569;-72
2023/08/13 11:46:21;;;;;;;;;;;;;;;23.50;54.05;95871.69;10453711;28;2030;-70
2023/08/13 11:51:25;;;;;;;;;;;;;;;23.52;54.07;95869.53;10443860;28;1994;-71
2023/08/13 11:56:25;;;;;;;;;;;;;;;23.51;54.09;95863.47;10486552;28;2020;-70
2023/08/13 12:01:26;;;;;;;;;;;;;;;23.52;54.03;95862.41;10451397;28;2012;-72
2023/08/13 12:06:26;;;;;;;;;;;;;;;23.54;54.11;95864.75;10448023;28;1953;-71
2023/08/13 12:11:26;;;;;;;;;;;;;;;23.53;54.14;95842.81;10483172;28;1912;-71
2023/08/13 12:16:26;;;;;;;;;;;;;;;23.54;54.13;95849.66;10474353;28;1967;-71
2023/08/13 12:21:27;;;;;;;;;;;;;;;23.56;54.20;95836.94;10451207;28;2010;-71
2023/08/13 12:26:27;;;;;;;;;;;;;;;23.57;54.18;95837.72;10452384;28;2042;-73
2023/08/13 12:31:29;;;;;;;;;;;;;;;23.56;54.19;95826.34;10458617;28;1862;-73
2023/08/13 12:36:30;;;;;;;;;;;;;;;23.58;54.17;95823.41;10468889;28;2396;-72
2023/08/13 12:41:30;;;;;;;;;;;;;;;23.59;54.10;95807.25;10451264;28;4513;-74
2023/08/13 12:46:30;;;;;;;;;;;;;;;23.59;54.28;95803.81;10459780;28;1862;-74
2023/08/13 12:51:31;;;;;;;;;;;;;;;23.60;54.41;95798.22;10455296;28;1893;-72
2023/08/13 12:56:31;;;;;;;;;;;;;;;23.61;54.42;95791.06;10455581;28;1973;-72
2023/08/13 13:01:34;;;;;;;;;;;;;;;23.62;54.25;95782.84;10449538;28;2244;-71
2023/08/13 13:06:34;;;;;;;;;;;;;;;23.61;54.11;95786.56;10483743;28;1948;-73
2023/08/13 13:11:35;;;;;;;;;;;;;;;23.64;54.36;95779.91;10446340;28;2026;-71
2023/08/13 13:16:35;;;;;;;;;;;;;;;23.65;54.29;95781.47;10451127;28;1954;-73
2023/08/13 13:21:36;;;;;;;;;;;;;;;23.65;54.17;95781.47;10447778;28;2053;-71
2023/08/13 13:26:36;;;;;;;;;;;;;;;23.65;54.26;95771.69;10448087;28;1971;-71
2023/08/13 13:31:37;;;;;;;;;;;;;;;23.65;54.42;95776.97;10449563;28;2371;-73
2023/08/13 13:36:37;;;;;;;;;;;;;;;23.67;54.43;95766.09;10440415;28;1910;-72
2023/08/13 13:41:38;;;;;;;;;;;;;;;23.67;54.38;95764.22;10450015;28;4657;-72
2023/08/13 13:46:38;;;;;;;;;;;;;;;23.68;54.49;95760.50;10448847;28;1878;-72
2023/08/13 13:51:39;;;;;;;;;;;;;;;23.69;54.68;95756.78;10450761;28;1866;-72
2023/08/13 13:56:40;;;;;;;;;;;;;;;23.71;54.41;95756.47;10448854;28;1914;-71
2023/08/13 14:01:40;;;;;;;;;;;;;;;23.70;54.71;95755.69;10446619;28;1907;-71
2023/08/13 14:06:40;;;;;;;;;;;;;;;23.72;54.54;95747.47;10432144;28;1854;-70
2023/08/13 14:11:41;;;;;;;;;;;;;;;23.72;54.52;95753.53;10452712;28;2057;-70
2023/08/13 14:16:41;;;;;;;;;;;;;;;23.72;54.49;95745.59;10461816;28;2089;-71
2023/08/13 14:21:41;;;;;;;;;;;;;;;23.72;54.33;95740.31;10464232;28;1673;-72
2023/08/13 14:26:42;;;;;;;;;;;;;;;23.73;54.71;95733.94;10475871;28;2444;-72
2023/08/13 14:31:42;;;;;;;;;;;;;;;23.73;54.75;95744.53;10458376;28;1917;-71
2023/08/13 14:36:42;;;;;;;;;;;;;;;23.74;54.58;95732.84;10459611;28;1922;-71
2023/08/13 14:41:42;;;;;;;;;;;;;;;23.75;54.72;95733.66;10458214;28;2073;-71
2023/08/13 14:46:43;;;;;;;;;;;;;;;23.74;54.29;95732.84;10462046;28;1912;-71
2023/08/13 14:51:44;;;;;;;;;;;;;;;23.75;54.63;95738.94;10456747;28;2172;-71
2023/08/13 14:56:45;;;;;;;;;;;;;;;23.75;54.57;95734.44;10449391;28;1914;-71
2023/08/13 15:01:46;;;;;;;;;;;;;;;23.75;54.56;95734.44;10456469;28;1781;-71
2023/08/13 15:06:47;;;;;;;;;;;;;;;23.76;54.72;95745.81;10454936;28;2042;-73
2023/08/13 15:11:47;;;;;;;;;;;;;;;23.75;54.55;95741.59;10456035;28;1992;-71
2023/08/13 15:16:47;;;;;;;;;;;;;;;23.77;54.67;95734.13;10458761;28;1930;-72
2023/08/13 15:21:47;;;;;;;;;;;;;;;23.76;54.54;95725.41;10459771;28;1885;-71
2023/08/13 15:26:48;;;;;;;;;;;;;;;23.78;54.57;95715.31;10491938;28;2232;-71
2023/08/13 15:31:50;;;;;;;;;;;;;;;23.77;54.45;95723.56;10464811;28;1897;-72
2023/08/13 15:36:51;;;;;;;;;;;;;;;23.78;54.70;95735.72;10456058;28;1910;-72
2023/08/13 15:41:51;;;;;;;;;;;;;;;23.79;54.68;95732.78;10452744;28;2032;-72
2023/08/13 15:46:51;;;;;;;;;;;;;;;23.79;54.52;95724.81;10485394;28;1869;-71
2023/08/13 15:51:51;;;;;;;;;;;;;;;23.80;54.50;95715.03;10446695;28;1873;-72
2023/08/13 15:56:52;;;;;;;;;;;;;;;23.79;54.62;95719.53;10453582;28;1961;-70
2023/08/13 16:01:52;;;;;;;;;;;;;;;23.80;54.75;95722.97;10454365;28;1881;-72
2023/08/13 16:06:53;;;;;;;;;;;;;;;23.81;54.61;95740.41;10449837;28;1926;-72
2023/08/13 16:11:53;;;;;;;;;;;;;;;23.81;54.47;95743.84;10452870;28;2086;-70
2023/08/13 16:16:54;;;;;;;;;;;;;;;23.81;54.48;95738.56;10448504;28;2001;-70
2023/08/13 16:21:54;;;;;;;;;;;;;;;23.82;54.66;95731.41;10450693;28;2290;-70
2023/08/13 16:26:54;;;;;;;;;;;;;;;23.82;54.65;95723.47;10450629;28;1833;-70
2023/08/13 16:31:54;;;;;;;;;;;;;;;23.83;54.64;95725.00;10452605;28;1990;-71
2023/08/13 16:36:55;;;;;;;;;;;;;;;23.83;54.59;95720.50;10441125;28;2116;-70
2023/08/13 16:41:55;;;;;;;;;;;;;;;23.84;54.65;95721.31;10463041;28;4438;-70
2023/08/13 16:46:55;;;;;;;;;;;;;;;23.84;54.52;95718.66;10451422;28;2057;-70
2023/08/13 16:51:56;;;;;;;;;;;;;;;23.84;54.51;95716.81;10447728;28;1869;-70
2023/08/13 16:56:56;;;;;;;;;;;;;;;23.85;54.43;95726.28;10454027;28;1954;-71
2023/08/13 17:01:56;;;;;;;;;;;;;;;23.86;54.62;95727.88;10440442;28;1925;-70
2023/08/13 17:06:56;;;;;;;;;;;;;;;23.84;54.72;95722.09;10451369;28;1888;-70
2023/08/13 17:11:57;;;;;;;;;;;;;;;23.87;54.64;95732.09;10444811;28;1819;-70
2023/08/13 17:16:57;;;;;;;;;;;;;;;23.87;54.69;95736.59;10478296;28;2242;-71
2023/08/13 17:21:57;;;;;;;;;;;;;;;23.86;54.49;95743.75;10444971;28;1838;-71
2023/08/13 17:26:58;;;;;;;;;;;;;;;23.88;54.54;95749.56;10462061;28;1905;-71
2023/08/13 17:31:58;;;;;;;;;;;;;;;23.87;54.66;95766.50;10455753;28;1877;-71
2023/08/13 17:36:58;;;;;;;;;;;;;;;23.88;54.68;95776.03;10458690;28;1995;-70
2023/08/13 17:41:58;;;;;;;;;;;;;;;23.89;54.67;95771.50;10423039;28;1910;-70
2023/08/13 17:46:59;;;;;;;;;;;;;;;23.88;54.75;95754.84;10452525;28;2072;-70
2023/08/13 17:51:59;;;;;;;;;;;;;;;23.89;54.79;95740.50;10460773;28;1962;-71
2023/08/13 17:56:59;;;;;;;;;;;;;;;23.90;54.77;95738.66;10459299;28;1905;-69
2023/08/13 18:01:59;;;;;;;;;;;;;;;23.90;54.63;95752.69;10491558;28;1825;-70
2023/08/13 18:07:00;;;;;;;;;;;;;;;23.89;54.77;95753.75;10455034;28;1893;-70
2023/08/13 18:12:00;;;;;;;;;;;;;;;23.90;54.80;95759.84;10460346;28;2386;-71
2023/08/13 18:17:00;;;;;;;;;;;;;;;23.91;54.64;95753.44;10463063;28;1910;-71
2023/08/13 18:22:01;;;;;;;;;;;;;;;23.90;54.73;95722.78;10447515;28;1877;-70
2023/08/13 18:27:01;;;;;;;;;;;;;;;23.91;54.59;95741.00;10442877;28;2058;-70
2023/08/13 18:32:01;;;;;;;;;;;;;;;23.90;54.63;95742.09;10452301;28;1806;-70
2023/08/13 18:37:01;;;;;;;;;;;;;;;23.92;54.74;95739.16;10453819;28;1981;-70
2023/08/13 18:42:02;;;;;;;;;;;;;;;23.92;54.62;95766.41;10483581;28;4635;-70
2023/08/13 18:47:02;;;;;;;;;;;;;;;23.92;54.79;95794.75;10455830;28;1892;-70
2023/08/13 18:52:02;;;;;;;;;;;;;;;23.92;54.83;95829.94;10442314;28;1877;-70
2023/08/13 18:57:02;;;;;;;;;;;;;;;23.92;54.67;95861.72;10436850;28;1959;-70
2023/08/13 19:02:03;;;;;;;;;;;;;;;23.92;54.56;95877.59;10450387;28;1920;-70
2023/08/13 19:07:03;;;;;;;;;;;;;;;23.92;54.58;95867.03;10484628;28;2252;-71
2023/08/13 19:12:03;;;;;;;;;;;;;;;23.92;54.50;95840.53;10486633;28;1896;-71
2023/08/13 19:17:04;;;;;;;;;;;;;;;23.93;54.69;95857.19;10454775;28;1906;-70
2023/08/13 19:22:04;;;;;;;;;;;;;;;23.94;54.71;95870.16;10455161;28;1880;-69
2023/08/13 19:27:04;;;;;;;;;;;;;;;23.93;54.57;95855.34;10455074;28;1946;-70
2023/08/13 19:32:04;;;;;;;;;;;;;;;23.93;54.77;95860.63;10479926;28;1938;-70
2023/08/13 19:37:05;;;;;;;;;;;;;;;23.93;54.73;95873.88;10445191;28;1910;-70
2023/08/13 19:42:05;;;;;;;;;;;;;;;23.94;54.73;95888.69;10454708;28;4510;-70
2023/08/13 19:47:06;;;;;;;;;;;;;;;23.94;54.43;95872.81;10484737;28;2017;-70
2023/08/13 19:52:06;;;;;;;;;;;;;;;23.94;54.56;95870.16;10458261;28;1859;-70
2023/08/13 19:57:06;;;;;;;;;;;;;;;23.95;54.46;95877.00;10450040;28;1895;-71
2023/08/13 20:02:07;;;;;;;;;;;;;;;23.94;54.58;95840.25;10444688;28;1874;-72
2023/08/13 20:07:07;;;;;;;;;;;;;;;23.93;54.55;95826.22;10445850;28;2401;-70
2023/08/13 20:12:07;;;;;;;;;;;;;;;23.94;54.52;95788.09;10461255;28;1829;-70
2023/08/13 20:17:08;;;;;;;;;;;;;;;23.95;54.42;95799.44;10453595;28;1906;-70
2023/08/13 20:22:08;;;;;;;;;;;;;;;23.95;54.53;95834.66;10473015;28;2078;-70
2023/08/13 20:27:08;;;;;;;;;;;;;;;23.96;54.50;95830.94;10443469;28;2034;-70
2023/08/13 20:32:09;;;;;;;;;;;;;;;23.96;54.43;95817.69;10449909;28;1885;-70
2023/08/13 20:37:09;;;;;;;;;;;;;;;23.95;54.42;95816.13;10425678;28;1967;-72
2023/08/13 20:42:09;;;;;;;;;;;;;;;23.96;54.53;95846.03;10460449;28;4558;-72
2023/08/13 20:47:09;;;;;;;;;;;;;;;23.96;54.33;95875.16;10456715;28;2093;-71
2023/08/13 20:52:10;;;;;;;;;;;;;;;23.95;54.55;95882.31;10445284;28;1909;-70
2023/08/13 20:57:10;;;;;;;;;;;;;;;23.96;54.60;95883.91;10453081;28;1971;-72
2023/08/13 21:02:10;;;;;;;;;;;;;;;23.96;54.54;95886.53;10448549;28;2582;-71
2023/08/13 21:07:11;;;;;;;;;;;;;;;23.97;54.33;95903.19;10444743;28;1857;-71
2023/08/13 21:12:11;;;;;;;;;;;;;;;23.97;54.39;95917.22;10443014;28;1862;-70
2023/08/13 21:17:11;;;;;;;;;;;;;;;23.98;54.66;95953.22;10444035;28;1977;-70
2023/08/13 21:22:12;;;;;;;;;;;;;;;23.98;54.45;95961.16;10450094;28;1897;-70
2023/08/13 21:27:12;;;;;;;;;;;;;;;23.99;54.47;95983.13;10460400;28;2082;-71
2023/08/13 21:32:12;;;;;;;;;;;;;;;23.97;54.40;95986.06;10477848;28;2032;-71
2023/08/13 21:37:13;;;;;;;;;;;;;;;23.98;54.58;95986.84;10445950;28;1906;-70
2023/08/13 21:42:13;;;;;;;;;;;;;;;23.98;54.44;95977.06;10449533;28;2066;-70
2023/08/13 21:47:13;;;;;;;;;;;;;;;23.99;54.40;95975.97;10450502;28;1963;-70
2023/08/13 21:52:16;;;;;;;;;;;;;;;23.99;54.35;95965.38;10446092;28;2169;-71
2023/08/13 21:57:16;;;;;;;;;;;;;;;23.98;54.46;95950.59;10440517;28;1902;-71
2023/08/13 22:02:16;;;;;;;;;;;;;;;23.99;54.34;95930.16;10447470;28;1885;-71
2023/08/13 22:07:17;;;;;;;;;;;;;;;23.99;54.32;95933.59;10451172;28;1909;-70
2023/08/13 22:12:17;;;;;;;;;;;;;;;23.99;54.18;95922.22;10445018;28;1887;-71
2023/08/13 22:17:17;;;;;;;;;;;;;;;23.99;54.16;95930.97;10444799;28;2125;-72
2023/08/13 22:22:18;;;;;;;;;;;;;;;24.00;54.40;95927.25;10450201;28;1897;-72
2023/08/13 22:27:18;;;;;;;;;;;;;;;24.01;54.49;95925.34;10444118;28;2039;-72
2023/08/13 22:32:19;;;;;;;;;;;;;;;24.01;54.65;95922.72;10448371;28;1956;-71
2023/08/13 22:37:19;;;;;;;;;;;;;;;24.01;54.36;95918.22;10484438;28;1914;-72
2023/08/13 22:42:19;;;;;;;;;;;;;;;24.02;54.38;95925.09;10452161;28;4516;-71
2023/08/13 22:47:20;;;;;;;;;;;;;;;24.01;54.60;95923.50;10451749;28;1818;-73
2023/08/13 22:52:20;;;;;;;;;;;;;;;24.01;54.50;95934.09;10482741;28;1885;-72
2023/08/13 22:57:20;;;;;;;;;;;;;;;24.02;54.52;95940.19;10472752;28;2684;-72
2023/08/13 23:02:20;;;;;;;;;;;;;;;24.02;54.38;95933.03;10456319;28;1950;-73
2023/08/13 23:07:23;;;;;;;;;;;;;;;24.03;54.52;95916.09;10460214;28;1823;-73
2023/08/13 23:12:24;;;;;;;;;;;;;;;24.02;54.60;95901.25;10457114;28;2145;-73
2023/08/13 23:17:24;;;;;;;;;;;;;;;24.03;54.58;95913.44;10454875;28;1968;-72
2023/08/13 23:22:24;;;;;;;;;;;;;;;24.04;54.31;95908.94;10452966;28;1946;-74
2023/08/13 23:27:24;;;;;;;;;;;;;;;24.03;54.61;95899.38;10451161;28;1877;-72
2023/08/13 23:32:25;;;;;;;;;;;;;;;24.03;54.58;95886.97;10463319;28;2088;-71
2023/08/13 23:37:25;;;;;;;;;;;;;;;24.03;54.57;95879.00;10457470;28;2242;-72
2023/08/13 23:42:25;;;;;;;;;;;;;;;24.04;54.68;95875.31;10449046;28;1919;-71
2023/08/13 23:47:25;;;;;;;;;;;;;;;24.04;54.49;95867.34;10449740;28;1884;-71
2023/08/13 23:52:26;;;;;;;;;;;;;;;24.04;54.76;95866.56;10442358;28;2401;-70
2023/08/13 23:57:26;;;;;;;;;;;;;;;24.04;54.41;95864.72;10450690;28;1940;-70
